Time;durP1;ratioP1;P1;durP2;ratioP2;P2;SDS_P1;SDS_P2;PMS_P1;PMS_P2;Temp;Humidity;BMP_temperature;BMP_pressure;BME280_temperature;BME280_humidity;BME280_pressure;Samples;Min_cycle;Max_cycle;Signal;HPM_P1;HPM_P2
2023/07/23 00:00:47;;;;;;;;;;;;;;;22.72;38.55;100802.94;4134529;28;20296;-54
2023/07/23 00:02:49;;;;;;;;;;;;;;;22.71;38.41;100794.03;4143027;28;20431;-50
2023/07/23 00:04:50;;;;;;;;;;;;;;;22.70;38.76;100797.69;4150957;28;19928;-53
2023/07/23 00:06:52;;;;;;;;;;;;;;;22.70;38.43;100786.09;4150813;28;19921;-51
2023/07/23 00:08:53;;;;;;;;;;;;;;;22.69;38.67;100793.31;4150634;28;20037;-52
2023/07/23 00:10:56;;;;;;;;;;;;;;;22.68;38.49;100796.97;4150731;28;19921;-54
2023/07/23 00:12:57;;;;;;;;;;;;;;;22.67;38.72;100786.38;4150054;28;19960;-53
2023/07/23 00:14:59;;;;;;;;;;;;;;;22.65;38.79;100783.84;4150812;28;19921;-53
2023/07/23 00:17:00;;;;;;;;;;;;;;;22.67;38.66;100786.38;4150935;28;19921;-52
2023/07/23 00:19:03;;;;;;;;;;;;;;;22.67;38.50;100783.72;4150441;28;19922;-53
2023/07/23 00:21:04;;;;;;;;;;;;;;;22.66;38.60;100782.84;4150302;28;20008;-53
2023/07/23 00:23:06;;;;;;;;;;;;;;;22.65;38.84;100782.00;4149896;28;20009;-53
2023/07/23 00:25:08;;;;;;;;;;;;;;;22.64;39.02;100779.47;4150267;28;19928;-52
2023/07/23 00:27:10;;;;;;;;;;;;;;;22.63;38.90;100785.81;4150513;28;19928;-51
2023/07/23 00:29:11;;;;;;;;;;;;;;;22.62;38.71;100784.09;4150379;28;19960;-54
2023/07/23 00:31:13;;;;;;;;;;;;;;;22.62;38.95;100782.25;4150416;28;19925;-54
2023/07/23 00:33:15;;;;;;;;;;;;;;;22.62;39.08;100782.25;4149125;28;19964;-54
2023/07/23 00:35:16;;;;;;;;;;;;;;;22.61;38.92;100780.59;4150001;28;19921;-53
2023/07/23 00:37:18;;;;;;;;;;;;;;;22.61;39.04;100783.25;4150354;28;20304;-52
2023/07/23 00:39:19;;;;;;;;;;;;;;;22.61;39.12;100777.91;4150323;28;20431;-54
2023/07/23 00:41:21;;;;;;;;;;;;;;;22.61;39.11;100779.72;4150125;28;20004;-51
2023/07/23 00:43:23;;;;;;;;;;;;;;;22.60;38.75;100781.56;4149370;28;19921;-52
2023/07/23 00:45:24;;;;;;;;;;;;;;;22.59;39.16;100785.22;4150428;28;20426;-54
2023/07/23 00:47:26;;;;;;;;;;;;;;;22.59;38.98;100781.66;4149839;28;19921;-51
2023/07/23 00:49:27;;;;;;;;;;;;;;;22.59;39.19;100778.97;4161474;28;19925;-52
2023/07/23 00:51:29;;;;;;;;;;;;;;;22.57;39.31;100776.44;4166601;28;19921;-53
2023/07/23 00:53:31;;;;;;;;;;;;;;;22.57;39.21;100779.13;4165732;28;20020;-52
2023/07/23 00:55:32;;;;;;;;;;;;;;;22.57;39.23;100771.09;4166398;28;20015;-52
2023/07/23 00:57:34;;;;;;;;;;;;;;;22.57;39.10;100767.56;4166242;28;19956;-53
2023/07/23 00:59:36;;;;;;;;;;;;;;;22.57;39.44;100762.22;4166250;28;20028;-53
2023/07/23 01:01:38;;;;;;;;;;;;;;;22.56;39.24;100774.75;4164928;28;20457;-52
2023/07/23 01:03:40;;;;;;;;;;;;;;;22.55;39.31;100766.84;4149088;28;19940;-54
2023/07/23 01:05:44;;;;;;;;;;;;;;;22.55;39.48;100762.31;4149861;28;20024;-52
2023/07/23 01:07:46;;;;;;;;;;;;;;;22.55;39.51;100759.63;4150019;28;20312;-51
2023/07/23 01:09:49;;;;;;;;;;;;;;;22.55;39.25;100762.31;4149768;28;19968;-51
2023/07/23 01:11:51;;;;;;;;;;;;;;;22.55;39.13;100761.47;4149789;28;19932;-54
2023/07/23 01:13:54;;;;;;;;;;;;;;;22.55;39.46;100750.75;4149189;28;19927;-51
2023/07/23 01:15:56;;;;;;;;;;;;;;;22.54;39.36;100752.59;4148086;28;19921;-54
2023/07/23 01:17:59;;;;;;;;;;;;;;;22.53;39.57;100748.22;4149760;28;20303;-51
2023/07/23 01:20:04;;;;;;;;;;;;;;;22.53;39.30;100745.53;4149350;28;19929;-48
2023/07/23 01:22:06;;;;;;;;;;;;;;;22.52;39.15;100751.88;4149536;28;19921;-55
2023/07/23 01:24:07;;;;;;;;;;;;;;;22.53;39.60;100731.28;4149262;28;19956;-49
2023/07/23 01:26:10;;;;;;;;;;;;;;;22.52;39.44;100732.25;4149470;28;19921;-51
2023/07/23 01:28:11;;;;;;;;;;;;;;;22.50;39.47;100732.38;4149572;28;19921;-52
2023/07/23 01:30:13;;;;;;;;;;;;;;;22.49;39.58;100728.88;4149188;28;19922;-52
2023/07/23 01:32:14;;;;;;;;;;;;;;;22.48;39.47;100729.84;4131651;28;20419;-53
2023/07/23 01:34:16;;;;;;;;;;;;;;;22.51;39.70;100725.22;4149186;28;19957;-51
2023/07/23 01:36:17;;;;;;;;;;;;;;;22.50;39.41;100721.66;4149528;28;19927;-54
2023/07/23 01:38:20;;;;;;;;;;;;;;;22.49;39.70;100720.84;4149677;28;19927;-54
2023/07/23 01:40:21;;;;;;;;;;;;;;;22.49;39.46;100707.44;4149439;28;19932;-52
2023/07/23 01:42:24;;;;;;;;;;;;;;;22.48;39.45;100705.72;4148506;28;19921;-50
2023/07/23 01:44:26;;;;;;;;;;;;;;;22.48;39.67;100702.22;4148579;28;19991;-53
2023/07/23 01:46:27;;;;;;;;;;;;;;;22.48;39.35;100702.22;4149474;28;20329;-53
2023/07/23 01:48:29;;;;;;;;;;;;;;;22.48;39.77;100710.25;4152512;28;20431;-52
2023/07/23 01:50:33;;;;;;;;;;;;;;;22.47;39.81;100701.34;4165394;28;20357;-53
2023/07/23 01:52:34;;;;;;;;;;;;;;;22.46;39.81;100707.69;4164779;28;19929;-52
2023/07/23 01:54:36;;;;;;;;;;;;;;;22.46;39.80;100705.00;4147932;28;19957;-54
2023/07/23 01:56:37;;;;;;;;;;;;;;;22.45;39.89;100700.63;4165329;28;19928;-52
2023/07/23 01:58:39;;;;;;;;;;;;;;;22.44;39.91;100701.63;4165013;28;19928;-53
2023/07/23 02:00:40;;;;;;;;;;;;;;;22.44;39.83;100704.31;4164920;28;19921;-52
2023/07/23 02:02:42;;;;;;;;;;;;;;;22.44;39.83;100696.28;4155831;28;19921;-49
2023/07/23 02:04:43;;;;;;;;;;;;;;;22.43;39.94;100693.69;4148668;28;19922;-54
2023/07/23 02:06:45;;;;;;;;;;;;;;;22.45;39.82;100697.09;4149050;28;19925;-47
2023/07/23 02:08:46;;;;;;;;;;;;;;;22.44;39.86;100698.94;4148888;28;20384;-54
2023/07/23 02:10:48;;;;;;;;;;;;;;;22.44;40.07;100690.91;4148837;28;19922;-53
2023/07/23 02:12:49;;;;;;;;;;;;;;;22.43;39.68;100704.41;4148141;28;19967;-53
2023/07/23 02:14:51;;;;;;;;;;;;;;;22.43;40.05;100696.38;4148367;28;19965;-54
2023/07/23 02:16:52;;;;;;;;;;;;;;;22.42;39.80;100703.59;4148737;28;20008;-52
2023/07/23 02:18:55;;;;;;;;;;;;;;;22.42;39.80;100698.22;4148733;28;19922;-54
2023/07/23 02:20:56;;;;;;;;;;;;;;;22.42;39.89;100692.00;4148866;28;20152;-51
2023/07/23 02:22:58;;;;;;;;;;;;;;;22.42;39.84;100705.41;4148183;28;19927;-53
2023/07/23 02:25:00;;;;;;;;;;;;;;;22.41;40.11;100701.88;4148849;28;20331;-51
2023/07/23 02:27:01;;;;;;;;;;;;;;;22.41;39.95;100693.00;4148672;28;19925;-53
2023/07/23 02:29:03;;;;;;;;;;;;;;;22.39;40.04;100685.06;4148449;28;19949;-54
2023/07/23 02:31:04;;;;;;;;;;;;;;;22.40;40.27;100685.94;4148551;28;20016;-53
2023/07/23 02:33:06;;;;;;;;;;;;;;;22.39;40.19;100685.06;4147800;28;19921;-52
2023/07/23 02:35:07;;;;;;;;;;;;;;;22.39;40.27;100676.19;4148322;28;20423;-52
2023/07/23 02:37:09;;;;;;;;;;;;;;;22.38;40.20;100679.81;4148428;28;20008;-53
2023/07/23 02:39:10;;;;;;;;;;;;;;;22.37;40.28;100679.00;4148534;28;19985;-53
2023/07/23 02:41:12;;;;;;;;;;;;;;;22.38;40.10;100678.00;4148343;28;20368;-52
2023/07/23 02:43:14;;;;;;;;;;;;;;;22.38;39.94;100678.00;4147410;28;19922;-48
2023/07/23 02:45:15;;;;;;;;;;;;;;;22.37;40.48;100684.34;4148448;28;19932;-50
2023/07/23 02:47:16;;;;;;;;;;;;;;;22.37;40.23;100675.44;4148272;28;19921;-52
2023/07/23 02:49:18;;;;;;;;;;;;;;;22.36;40.25;100679.97;4158381;28;19928;-52
2023/07/23 02:51:20;;;;;;;;;;;;;;;22.36;40.44;100685.31;4164537;28;19932;-48
2023/07/23 02:53:21;;;;;;;;;;;;;;;22.37;40.15;100680.81;4163882;28;19968;-48
2023/07/23 02:55:25;;;;;;;;;;;;;;;22.36;40.44;100679.97;4164720;28;20334;-54
2023/07/23 02:57:26;;;;;;;;;;;;;;;22.36;40.40;100688.00;4164344;28;19968;-49
2023/07/23 02:59:28;;;;;;;;;;;;;;;22.35;40.50;100680.94;4164324;28;20446;-53
2023/07/23 03:01:30;;;;;;;;;;;;;;;22.35;40.16;100686.31;4164393;28;19975;-52
2023/07/23 03:03:32;;;;;;;;;;;;;;;22.34;40.34;100684.59;4148195;28;20024;-54
2023/07/23 03:05:37;;;;;;;;;;;;;;;22.34;40.48;100676.56;4148332;28;19944;-50
2023/07/23 03:07:38;;;;;;;;;;;;;;;22.33;40.34;100673.03;4148169;28;19921;-50
2023/07/23 03:09:40;;;;;;;;;;;;;;;22.33;40.42;100672.19;4148247;28;19921;-46
2023/07/23 03:11:41;;;;;;;;;;;;;;;22.34;40.36;100671.19;4147768;28;19979;-49
2023/07/23 03:13:42;;;;;;;;;;;;;;;22.33;40.55;100661.47;4130020;28;19922;-47
2023/07/23 03:15:44;;;;;;;;;;;;;;;22.33;40.53;100669.50;4148112;28;19957;-54
2023/07/23 03:17:45;;;;;;;;;;;;;;;22.32;40.25;100665.13;4148122;28;19925;-52
2023/07/23 03:19:47;;;;;;;;;;;;;;;22.32;40.75;100662.44;4147948;28;19952;-53
2023/07/23 03:21:49;;;;;;;;;;;;;;;22.31;40.64;100663.44;4148044;28;20024;-53
2023/07/23 03:23:50;;;;;;;;;;;;;;;22.31;40.47;100671.47;4147907;28;19961;-52
2023/07/23 03:25:52;;;;;;;;;;;;;;;22.30;40.69;100675.97;4153050;28;20293;-52
2023/07/23 03:27:56;;;;;;;;;;;;;;;22.29;40.67;100666.22;4153440;28;19921;-48
2023/07/23 03:29:58;;;;;;;;;;;;;;;22.29;40.87;100676.13;4153230;28;19922;-49
2023/07/23 03:31:59;;;;;;;;;;;;;;;22.27;40.77;100665.53;4136100;28;19921;-51
2023/07/23 03:34:01;;;;;;;;;;;;;;;22.28;40.53;100663.69;4152442;28;20003;-51
2023/07/23 03:36:03;;;;;;;;;;;;;;;22.26;40.75;100663.84;4153351;28;19960;-52
2023/07/23 03:38:04;;;;;;;;;;;;;;;22.27;40.84;100660.19;4153404;28;19928;-50
2023/07/23 03:40:06;;;;;;;;;;;;;;;22.21;40.99;100651.81;4135807;28;19972;-53
2023/07/23 03:42:08;;;;;;;;;;;;;;;22.26;40.88;100663.84;4152883;28;20011;-53
2023/07/23 03:44:13;;;;;;;;;;;;;;;22.26;41.12;100646.91;4152822;28;19921;-52
2023/07/23 03:46:14;;;;;;;;;;;;;;;22.26;41.08;100646.91;4153323;28;19921;-52
2023/07/23 03:48:16;;;;;;;;;;;;;;;22.25;41.04;100650.56;4154632;28;20391;-53
2023/07/23 03:50:17;;;;;;;;;;;;;;;22.25;40.88;100642.50;4169575;28;19927;-50
2023/07/23 03:52:21;;;;;;;;;;;;;;;22.25;41.02;100648.75;4169551;28;19921;-53
2023/07/23 03:54:23;;;;;;;;;;;;;;;22.24;41.17;100644.34;4169009;28;19971;-53
2023/07/23 03:56:27;;;;;;;;;;;;;;;22.24;41.11;100641.69;4169278;28;19921;-53
2023/07/23 03:58:28;;;;;;;;;;;;;;;22.24;40.95;100638.16;4169632;28;19921;-53
2023/07/23 04:00:30;;;;;;;;;;;;;;;22.23;41.39;100642.66;4169444;28;20384;-53
2023/07/23 04:02:32;;;;;;;;;;;;;;;22.24;41.13;100630.13;4161940;28;19921;-51
2023/07/23 04:04:34;;;;;;;;;;;;;;;22.23;41.24;100633.78;4152409;28;19929;-50
2023/07/23 04:06:36;;;;;;;;;;;;;;;22.23;41.24;100625.75;4152986;28;19925;-52
2023/07/23 04:08:39;;;;;;;;;;;;;;;22.22;41.47;100622.19;4153135;28;20384;-51
2023/07/23 04:10:40;;;;;;;;;;;;;;;22.22;41.41;100626.72;4152572;28;20016;-52
2023/07/23 04:12:42;;;;;;;;;;;;;;;22.22;41.39;100632.91;4152944;28;19921;-54
2023/07/23 04:14:43;;;;;;;;;;;;;;;22.22;41.25;100627.56;4152669;28;20404;-51
2023/07/23 04:16:50;;;;;;;;;;;;;;;22.21;41.57;100622.34;4153104;28;19975;-49
2023/07/23 04:18:51;;;;;;;;;;;;;;;22.21;41.28;100630.38;4153124;28;19976;-51
2023/07/23 04:20:53;;;;;;;;;;;;;;;22.20;41.50;100628.69;4153110;28;19928;-52
2023/07/23 04:22:54;;;;;;;;;;;;;;;22.20;41.36;100623.31;4152258;28;20353;-52
2023/07/23 04:24:56;;;;;;;;;;;;;;;22.18;41.71;100618.09;4152536;28;19925;-52
2023/07/23 04:26:57;;;;;;;;;;;;;;;22.18;41.69;100620.78;4153057;28;19922;-54
2023/07/23 04:29:00;;;;;;;;;;;;;;;22.17;41.55;100616.41;4153038;28;19921;-53
2023/07/23 04:31:02;;;;;;;;;;;;;;;22.17;41.54;100614.56;4152944;28;19925;-54
2023/07/23 04:33:03;;;;;;;;;;;;;;;22.16;41.77;100615.56;4152196;28;20308;-53
2023/07/23 04:35:05;;;;;;;;;;;;;;;22.17;41.84;100619.91;4152965;28;20023;-54
2023/07/23 04:37:07;;;;;;;;;;;;;;;22.17;42.38;100624.44;4149110;28;20083;-52
2023/07/23 04:39:09;;;;;;;;;;;;;;;22.17;41.68;100625.28;4150016;28;19921;-53
2023/07/23 04:41:11;;;;;;;;;;;;;;;22.16;41.97;100626.28;4150396;28;19922;-53
2023/07/23 04:43:13;;;;;;;;;;;;;;;22.15;41.97;100637.97;4149690;28;20080;-51
2023/07/23 04:45:14;;;;;;;;;;;;;;;22.16;42.17;100626.28;4150376;28;19929;-51
2023/07/23 04:47:16;;;;;;;;;;;;;;;22.16;41.92;100623.59;4150337;28;19921;-52
2023/07/23 04:49:18;;;;;;;;;;;;;;;22.16;42.06;100637.00;4160055;28;19927;-52
2023/07/23 04:51:19;;;;;;;;;;;;;;;22.14;42.16;100625.56;4166530;28;19953;-51
2023/07/23 04:53:23;;;;;;;;;;;;;;;22.15;42.02;100621.91;4148066;28;19921;-53
2023/07/23 04:55:25;;;;;;;;;;;;;;;22.14;42.80;100627.38;4166316;28;20017;-51
2023/07/23 04:57:27;;;;;;;;;;;;;;;22.13;42.38;100625.69;4166315;28;19924;-55
2023/07/23 04:59:28;;;;;;;;;;;;;;;22.14;42.40;100619.31;4166220;28;20415;-53
2023/07/23 05:01:30;;;;;;;;;;;;;;;22.12;42.89;100630.19;4166461;28;19961;-53
2023/07/23 05:03:32;;;;;;;;;;;;;;;22.13;42.32;100626.53;4149823;28;20024;-54
2023/07/23 05:05:34;;;;;;;;;;;;;;;22.13;42.65;100628.38;4149705;28;19921;-50
2023/07/23 05:07:35;;;;;;;;;;;;;;;22.10;42.81;100632.16;4149541;28;19921;-52
2023/07/23 05:09:36;;;;;;;;;;;;;;;22.12;42.15;100629.34;4149601;28;19926;-53
2023/07/23 05:11:38;;;;;;;;;;;;;;;22.14;43.15;100624.69;4149859;28;19952;-54
2023/07/23 05:13:40;;;;;;;;;;;;;;;22.11;43.28;100616.94;4149074;28;19922;-52
2023/07/23 05:15:41;;;;;;;;;;;;;;;22.10;42.74;100616.09;4149615;28;20387;-53
2023/07/23 05:17:43;;;;;;;;;;;;;;;22.10;42.91;100612.56;4150003;28;19964;-51
2023/07/23 05:19:44;;;;;;;;;;;;;;;22.11;42.73;100606.22;4132299;28;19922;-51
2023/07/23 05:21:46;;;;;;;;;;;;;;;22.10;43.25;100618.78;4149587;28;19928;-51
2023/07/23 05:23:47;;;;;;;;;;;;;;;22.09;42.82;100598.31;4148855;28;19928;-54
2023/07/23 05:25:49;;;;;;;;;;;;;;;22.09;42.69;100594.78;4149655;28;20348;-53
2023/07/23 05:27:51;;;;;;;;;;;;;;;22.08;42.67;100593.94;4149544;28;19964;-53
2023/07/23 05:29:54;;;;;;;;;;;;;;;22.09;43.75;100592.97;4149307;28;19996;-49
2023/07/23 05:31:55;;;;;;;;;;;;;;;22.09;42.85;100603.69;4149436;28;20325;-52
2023/07/23 05:33:57;;;;;;;;;;;;;;;22.12;42.64;100599.88;4148820;28;19925;-51
2023/07/23 05:35:58;;;;;;;;;;;;;;;22.10;43.18;100596.47;4149437;28;19928;-54
2023/07/23 05:38:00;;;;;;;;;;;;;;;22.09;42.66;100601.00;4149208;28;19951;-53
2023/07/23 05:40:03;;;;;;;;;;;;;;;22.10;42.81;100599.16;4149679;28;19928;-51
2023/07/23 05:42:05;;;;;;;;;;;;;;;22.09;42.69;100602.81;4131914;28;19957;-52
2023/07/23 05:44:06;;;;;;;;;;;;;;;22.09;42.69;100600.13;4148654;28;19929;-50
2023/07/23 05:46:08;;;;;;;;;;;;;;;22.09;42.87;100595.66;4149223;28;19921;-54
2023/07/23 05:48:10;;;;;;;;;;;;;;;22.08;42.83;100604.66;4131370;28;19968;-54
2023/07/23 05:50:11;;;;;;;;;;;;;;;22.08;42.75;100598.44;4149212;28;19921;-53
2023/07/23 05:52:13;;;;;;;;;;;;;;;22.08;42.47;100604.66;4148870;28;19921;-52
2023/07/23 05:54:15;;;;;;;;;;;;;;;22.08;42.99;100625.22;4148557;28;19921;-53
2023/07/23 05:56:16;;;;;;;;;;;;;;;22.07;43.30;100604.81;4149156;28;20016;-52
2023/07/23 05:58:18;;;;;;;;;;;;;;;22.08;43.11;100611.81;4149075;28;19960;-51
2023/07/23 06:00:19;;;;;;;;;;;;;;;22.09;43.42;100621.56;4148767;28;20330;-53
2023/07/23 06:02:20;;;;;;;;;;;;;;;22.08;43.03;100615.38;4148740;28;19929;-49
2023/07/23 06:04:22;;;;;;;;;;;;;;;22.08;42.67;100618.06;4148418;28;20312;-53
2023/07/23 06:06:24;;;;;;;;;;;;;;;22.09;42.96;100618.88;4148601;28;20016;-55
2023/07/23 06:08:25;;;;;;;;;;;;;;;22.08;43.08;100617.19;4149144;28;20008;-54
2023/07/23 06:10:27;;;;;;;;;;;;;;;22.08;42.92;100625.22;4149052;28;20364;-50
2023/07/23 06:12:28;;;;;;;;;;;;;;;22.08;43.80;100614.50;4131506;28;20024;-53
2023/07/23 06:14:30;;;;;;;;;;;;;;;22.07;43.90;100611.00;4148069;28;19953;-49
2023/07/23 06:16:31;;;;;;;;;;;;;;;22.07;43.23;100608.31;4148730;28;19921;-50
2023/07/23 06:18:36;;;;;;;;;;;;;;;22.07;44.16;100604.81;4148658;28;19921;-51
2023/07/23 06:20:38;;;;;;;;;;;;;;;22.06;43.68;100616.50;4148471;28;19932;-52
2023/07/23 06:22:39;;;;;;;;;;;;;;;22.07;43.23;100612.84;4148441;28;19993;-49
2023/07/23 06:24:41;;;;;;;;;;;;;;;22.05;43.21;100615.63;4147736;28;19928;-50
2023/07/23 06:26:43;;;;;;;;;;;;;;;22.07;43.46;100628.91;4148663;28;19922;-50
2023/07/23 06:28:44;;;;;;;;;;;;;;;22.07;43.25;100623.53;4148484;28;19922;-53
2023/07/23 06:30:49;;;;;;;;;;;;;;;22.06;43.88;100619.16;4148571;28;19933;-53
2023/07/23 06:32:50;;;;;;;;;;;;;;;22.05;43.63;100615.63;4148551;28;19975;-54
2023/07/23 06:34:52;;;;;;;;;;;;;;;22.05;44.10;100620.97;4147654;28;19921;-54
2023/07/23 06:36:54;;;;;;;;;;;;;;;22.05;43.71;100629.00;4148473;28;19940;-53
2023/07/23 06:38:55;;;;;;;;;;;;;;;22.05;44.34;100634.38;4148483;28;19928;-51
2023/07/23 06:40:57;;;;;;;;;;;;;;;22.01;44.49;100631.09;4148523;28;19972;-51
2023/07/23 06:42:58;;;;;;;;;;;;;;;22.03;43.85;100617.59;4148391;28;20300;-53
2023/07/23 06:45:00;;;;;;;;;;;;;;;22.04;43.73;100623.78;4147854;28;19922;-55
2023/07/23 06:47:02;;;;;;;;;;;;;;;22.05;43.39;100618.31;4130747;28;20013;-54
2023/07/23 06:49:03;;;;;;;;;;;;;;;22.01;45.08;100616.88;4139608;28;19963;-53
2023/07/23 06:51:05;;;;;;;;;;;;;;;21.99;44.54;100621.50;4131933;28;19937;-51
2023/07/23 06:53:06;;;;;;;;;;;;;;;22.00;44.81;100613.34;4131743;28;20012;-51
2023/07/23 06:55:08;;;;;;;;;;;;;;;21.99;44.21;100622.38;4131386;28;19932;-52
2023/07/23 06:57:09;;;;;;;;;;;;;;;21.98;44.64;100614.44;4131909;28;19922;-49
2023/07/23 06:59:11;;;;;;;;;;;;;;;21.99;44.80;100617.03;4131236;28;19929;-51
2023/07/23 07:01:13;;;;;;;;;;;;;;;21.99;44.94;100616.16;4131830;28;19922;-52
2023/07/23 07:03:14;;;;;;;;;;;;;;;22.01;44.61;100619.56;4144283;28;19928;-53
2023/07/23 07:05:16;;;;;;;;;;;;;;;21.99;44.74;100621.50;4147507;28;19961;-51
2023/07/23 07:07:17;;;;;;;;;;;;;;;21.99;45.17;100624.19;4148051;28;19928;-53
2023/07/23 07:09:19;;;;;;;;;;;;;;;21.99;44.76;100627.72;4148015;28;19925;-53
2023/07/23 07:11:20;;;;;;;;;;;;;;;22.00;44.47;100624.03;4148136;28;19928;-53
2023/07/23 07:13:22;;;;;;;;;;;;;;;21.99;44.96;100622.38;4147585;28;20407;-52
2023/07/23 07:15:23;;;;;;;;;;;;;;;22.00;44.28;100615.19;4147929;28;19928;-52
2023/07/23 07:17:25;;;;;;;;;;;;;;;21.99;44.63;100603.63;4147916;28;19976;-53
2023/07/23 07:19:26;;;;;;;;;;;;;;;21.99;45.13;100622.38;4147791;28;20344;-53
2023/07/23 07:21:28;;;;;;;;;;;;;;;21.99;44.82;100618.81;4147828;28;19922;-54
2023/07/23 07:23:30;;;;;;;;;;;;;;;22.00;45.32;100625.88;4147463;28;19925;-49
2023/07/23 07:25:32;;;;;;;;;;;;;;;21.98;45.30;100626.03;4147956;28;19957;-54
2023/07/23 07:27:33;;;;;;;;;;;;;;;22.00;45.48;100620.53;4148005;28;20403;-53
2023/07/23 07:29:39;;;;;;;;;;;;;;;22.00;44.65;100616.00;4148035;28;19921;-47
2023/07/23 07:31:41;;;;;;;;;;;;;;;22.01;45.49;100620.41;4130643;28;20005;-49
2023/07/23 07:33:44;;;;;;;;;;;;;;;22.00;46.15;100618.69;4147171;28;19925;-51
2023/07/23 07:35:45;;;;;;;;;;;;;;;22.01;45.81;100623.06;4147704;28;19922;-51
2023/07/23 07:37:47;;;;;;;;;;;;;;;22.02;45.37;100622.09;4147908;28;20008;-48
2023/07/23 07:39:49;;;;;;;;;;;;;;;22.03;45.88;100620.28;4147765;28;19925;-52
2023/07/23 07:41:53;;;;;;;;;;;;;;;22.04;45.69;100615.75;4147861;28;20102;-49
2023/07/23 07:43:54;;;;;;;;;;;;;;;22.04;44.92;100627.31;4147311;28;19921;-50
2023/07/23 07:46:00;;;;;;;;;;;;;;;22.04;45.58;100616.59;4147654;28;19969;-52
2023/07/23 07:48:02;;;;;;;;;;;;;;;22.03;45.55;100620.28;4147448;28;19921;-50
2023/07/23 07:50:06;;;;;;;;;;;;;;;22.04;45.75;100621.94;4114279;28;19930;-51
2023/07/23 07:52:08;;;;;;;;;;;;;;;22.05;45.73;100623.66;4131565;28;19922;-52
2023/07/23 07:54:10;;;;;;;;;;;;;;;22.06;45.52;100625.34;4113643;28;19933;-52
2023/07/23 07:56:17;;;;;;;;;;;;;;;22.08;45.45;100639.47;4131579;28;19928;-51
2023/07/23 07:58:24;;;;;;;;;;;;;;;22.08;45.69;100631.44;4130100;28;19993;-48
2023/07/23 08:00:26;;;;;;;;;;;;;;;22.11;45.97;100641.03;4131310;28;19926;-49
2023/07/23 08:02:28;;;;;;;;;;;;;;;22.09;45.69;100625.09;4137599;28;19945;-48
2023/07/23 08:04:29;;;;;;;;;;;;;;;22.10;45.55;100632.16;4145837;28;19980;-47
2023/07/23 08:06:33;;;;;;;;;;;;;;;22.10;46.15;100625.94;4147897;28;19928;-48
2023/07/23 08:08:35;;;;;;;;;;;;;;;22.09;46.02;100622.44;4147793;28;19921;-50
2023/07/23 08:10:37;;;;;;;;;;;;;;;22.10;45.81;100631.31;4148238;28;19921;-54
2023/07/23 08:12:39;;;;;;;;;;;;;;;22.09;46.10;100622.44;4150745;28;19925;-48
2023/07/23 08:14:41;;;;;;;;;;;;;;;22.10;46.10;100623.28;4149974;28;19928;-51
2023/07/23 08:16:42;;;;;;;;;;;;;;;22.11;45.80;100625.81;4150638;28;19971;-51
2023/07/23 08:18:44;;;;;;;;;;;;;;;22.10;45.46;100620.59;4150672;28;20303;-49
2023/07/23 08:20:46;;;;;;;;;;;;;;;22.09;45.96;100629.59;4150711;28;19921;-49
2023/07/23 08:22:48;;;;;;;;;;;;;;;22.11;45.82;100639.19;4150371;28;19921;-48
2023/07/23 08:24:49;;;;;;;;;;;;;;;22.09;45.87;100627.78;4150196;28;19925;-50
2023/07/23 08:26:54;;;;;;;;;;;;;;;22.08;45.95;100622.53;4150654;28;20324;-54
2023/07/23 08:29:02;;;;;;;;;;;;;;;22.11;45.91;100627.66;4150653;28;19949;-49
2023/07/23 08:31:03;;;;;;;;;;;;;;;22.11;46.04;100625.81;4148958;28;20348;-53
2023/07/23 08:33:06;;;;;;;;;;;;;;;22.12;46.12;100621.31;4150383;28;20435;-53
2023/07/23 08:35:11;;;;;;;;;;;;;;;22.12;46.11;100626.66;4149663;28;19949;-52
2023/07/23 08:37:12;;;;;;;;;;;;;;;22.12;45.89;100627.50;4132953;28;20001;-53
2023/07/23 08:39:14;;;;;;;;;;;;;;;22.13;45.94;100625.69;4150229;28;20384;-48
2023/07/23 08:41:22;;;;;;;;;;;;;;;22.13;45.98;100618.50;4150227;28;19921;-52
2023/07/23 08:43:23;;;;;;;;;;;;;;;22.14;46.20;100619.31;4149908;28;19957;-53
2023/07/23 08:45:38;;;;;;;;;;;;;;;22.13;46.38;100614.97;4149172;28;19922;-53
2023/07/23 08:47:45;;;;;;;;;;;;;;;22.14;46.29;100625.56;4149971;28;19925;-51
2023/07/23 08:49:47;;;;;;;;;;;;;;;22.13;46.20;100628.38;4136178;28;20393;-52
2023/07/23 08:51:53;;;;;;;;;;;;;;;22.13;46.26;100614.97;4133707;28;19965;-53
2023/07/23 08:54:02;;;;;;;;;;;;;;;22.13;46.17;100623.03;4133435;28;20138;-53
2023/07/23 08:56:04;;;;;;;;;;;;;;;22.13;45.95;100629.22;4133728;28;19921;-49
2023/07/23 08:58:05;;;;;;;;;;;;;;;22.14;45.88;100630.91;4133743;28;19921;-53
2023/07/23 09:00:07;;;;;;;;;;;;;;;22.16;45.96;100630.78;4133274;28;20008;-52
2023/07/23 09:02:10;;;;;;;;;;;;;;;22.16;46.37;100633.44;4137769;28;19922;-52
2023/07/23 09:04:13;;;;;;;;;;;;;;;22.15;46.07;100634.44;4148914;28;19953;-49
2023/07/23 09:06:15;;;;;;;;;;;;;;;22.15;46.42;100626.38;4149591;28;19975;-49
2023/07/23 09:08:16;;;;;;;;;;;;;;;22.15;46.41;100629.94;4149982;28;20046;-52
2023/07/23 09:10:18;;;;;;;;;;;;;;;22.15;46.62;100627.25;4149896;28;19931;-53
2023/07/23 09:12:19;;;;;;;;;;;;;;;22.15;46.89;100629.94;4149865;28;19937;-52
2023/07/23 09:14:26;;;;;;;;;;;;;;;22.16;46.89;100630.78;4148691;28;19929;-52
2023/07/23 09:16:34;;;;;;;;;;;;;;;22.17;47.04;100624.44;4149640;28;19969;-51
2023/07/23 09:18:40;;;;;;;;;;;;;;;22.16;46.92;100636.13;4149687;28;20273;-50
2023/07/23 09:20:47;;;;;;;;;;;;;;;22.17;47.27;100629.78;4149730;28;20365;-53
2023/07/23 09:22:48;;;;;;;;;;;;;;;22.18;47.57;100631.50;4148709;28;19929;-52
2023/07/23 09:24:57;;;;;;;;;;;;;;;22.18;46.92;100623.47;4148829;28;20013;-52
2023/07/23 09:26:59;;;;;;;;;;;;;;;22.18;47.44;100626.97;4149480;28;19952;-53
2023/07/23 09:29:01;;;;;;;;;;;;;;;22.20;47.67;100623.31;4149290;28;20008;-54
2023/07/23 09:31:03;;;;;;;;;;;;;;;22.21;47.03;100622.34;4149626;28;19921;-50
2023/07/23 09:33:07;;;;;;;;;;;;;;;22.21;47.92;100631.22;4149247;28;19925;-54
2023/07/23 09:35:09;;;;;;;;;;;;;;;22.24;47.33;100630.97;4148754;28;19922;-53
2023/07/23 09:37:10;;;;;;;;;;;;;;;22.25;48.30;100642.50;4149348;28;20421;-50
2023/07/23 09:39:12;;;;;;;;;;;;;;;22.25;48.07;100635.34;4149448;28;20441;-50
2023/07/23 09:41:13;;;;;;;;;;;;;;;22.26;48.30;100638.84;4149162;28;19921;-51
2023/07/23 09:43:15;;;;;;;;;;;;;;;22.25;47.41;100645.19;4148751;28;19929;-48
2023/07/23 09:45:17;;;;;;;;;;;;;;;22.26;47.03;100638.84;4148508;28;19929;-52
2023/07/23 09:47:25;;;;;;;;;;;;;;;22.26;47.83;100645.09;4149075;28;20294;-52
2023/07/23 09:49:30;;;;;;;;;;;;;;;22.27;47.51;100653.97;4137843;28;19968;-51
2023/07/23 09:51:32;;;;;;;;;;;;;;;22.27;46.92;100648.59;4133034;28;19953;-50
2023/07/23 09:53:34;;;;;;;;;;;;;;;22.26;46.74;100650.44;4133053;28;19945;-52
2023/07/23 09:55:36;;;;;;;;;;;;;;;22.25;46.80;100650.56;4132277;28;20443;-53
2023/07/23 09:57:39;;;;;;;;;;;;;;;22.24;46.60;100648.88;4132575;28;19922;-54
2023/07/23 09:59:41;;;;;;;;;;;;;;;22.24;46.70;100646.19;4132715;28;19925;-53
2023/07/23 10:01:43;;;;;;;;;;;;;;;22.24;47.03;100656.91;4133327;28;19929;-54
2023/07/23 10:03:45;;;;;;;;;;;;;;;22.24;47.78;100671.16;4148722;28;19921;-54
2023/07/23 10:05:47;;;;;;;;;;;;;;;22.24;48.20;100660.44;4148254;28;19936;-49
2023/07/23 10:07:48;;;;;;;;;;;;;;;22.25;48.77;100663.94;4148744;28;20023;-55
2023/07/23 10:09:50;;;;;;;;;;;;;;;22.25;48.56;100674.66;4131015;28;19957;-52
2023/07/23 10:11:51;;;;;;;;;;;;;;;22.23;49.49;100663.25;4148425;28;20265;-52
2023/07/23 10:13:53;;;;;;;;;;;;;;;22.23;49.43;100674.81;4148702;28;19921;-49
2023/07/23 10:15:55;;;;;;;;;;;;;;;22.24;49.47;100676.50;4148110;28;19921;-54
2023/07/23 10:18:00;;;;;;;;;;;;;;;22.24;49.28;100664.94;4148680;28;19921;-54
2023/07/23 10:20:06;;;;;;;;;;;;;;;22.25;49.61;100669.31;4148842;28;19921;-50
2023/07/23 10:22:09;;;;;;;;;;;;;;;22.25;49.61;100671.97;4148819;28;20333;-53
2023/07/23 10:24:10;;;;;;;;;;;;;;;22.26;49.53;100671.00;4147918;28;19925;-53
2023/07/23 10:26:26;;;;;;;;;;;;;;;22.26;49.06;100677.22;4148598;28;19929;-54